Time;durP1;ratioP1;P1;durP2;ratioP2;P2;SDS_P1;SDS_P2;PMS_P1;PMS_P2;Temp;Humidity;BMP_temperature;BMP_pressure;BME280_temperature;BME280_humidity;BME280_pressure;Samples;Min_cycle;Max_cycle;Signal;HPM_P1;HPM_P2
2022/07/29 00:00:40;;;;;;;4.38;1.70;;;19.70;99.90;;;;;;5070640;28;20150;-61
2022/07/29 00:03:06;;;;;;;3.35;1.92;;;19.70;99.90;;;;;;5071723;28;20104;-60
2022/07/29 00:05:31;;;;;;;3.45;1.80;;;19.70;99.90;;;;;;5071880;28;20028;-60
2022/07/29 00:07:57;;;;;;;2.63;1.70;;;19.70;99.90;;;;;;5071936;28;20032;-60
2022/07/29 00:10:23;;;;;;;7.10;2.10;;;19.70;99.90;;;;;;5071573;28;20382;-60
2022/07/29 00:12:48;;;;;;;3.97;1.70;;;19.70;99.90;;;;;;5071652;28;20040;-60
2022/07/29 00:15:14;;;;;;;3.58;1.73;;;19.60;99.90;;;;;;5071443;28;20064;-60
2022/07/29 00:17:40;;;;;;;3.70;1.80;;;19.60;99.90;;;;;;5071442;28;20107;-61
2022/07/29 00:20:06;;;;;;;5.15;1.90;;;19.50;99.90;;;;;;5071368;28;20032;-62
2022/07/29 00:22:32;;;;;;;3.72;1.70;;;19.60;99.90;;;;;;5069804;28;20039;-60
2022/07/29 00:24:57;;;;;;;6.55;1.80;;;19.60;99.90;;;;;;5071459;28;20528;-59
2022/07/29 00:27:23;;;;;;;6.65;2.40;;;19.60;99.90;;;;;;5071129;28;20047;-59
2022/07/29 00:29:49;;;;;;;5.07;1.67;;;19.50;99.90;;;;;;5071442;28;20031;-60
2022/07/29 00:32:14;;;;;;;8.10;2.17;;;19.50;99.90;;;;;;5071284;28;20032;-60
2022/07/29 00:37:24;;;;;;;6.15;1.83;;;19.40;99.90;;;;;;5070946;28;20535;-60
2022/07/29 00:39:50;;;;;;;5.60;2.03;;;19.40;99.90;;;;;;5071117;28;20024;-60
2022/07/29 00:42:16;;;;;;;6.38;2.20;;;19.40;99.90;;;;;;5070978;28;20032;-60
2022/07/29 00:44:42;;;;;;;4.30;2.20;;;19.40;99.90;;;;;;5069564;28;20063;-60
2022/07/29 00:47:09;;;;;;;7.20;1.95;;;19.30;99.90;;;;;;5071242;28;20115;-60
2022/07/29 00:49:35;;;;;;;5.70;2.30;;;19.20;99.90;;;;;;5071268;28;20488;-59
2022/07/29 00:52:03;;;;;;;5.10;2.05;;;19.10;99.90;;;;;;5070877;28;20481;-61
2022/07/29 00:54:29;;;;;;;4.30;1.90;;;19.00;99.90;;;;;;5070948;28;20454;-59
2022/07/29 00:56:58;;;;;;;7.20;2.22;;;19.10;99.90;;;;;;5070524;28;20074;-59
2022/07/29 00:59:23;;;;;;;6.78;1.95;;;19.00;99.90;;;;;;5070791;28;20037;-60
2022/07/29 01:01:49;;;;;;;5.40;2.22;;;19.00;99.90;;;;;;5070697;28;20397;-60
2022/07/29 01:04:14;;;;;;;20.55;3.05;;;19.00;99.90;;;;;;5070862;28;20415;-60
2022/07/29 01:06:41;;;;;;;9.40;2.40;;;18.90;99.90;;;;;;5069474;28;20032;-60
2022/07/29 01:09:07;;;;;;;5.55;2.13;;;18.90;99.90;;;;;;5070949;28;20021;-60
2022/07/29 01:11:33;;;;;;;4.10;2.60;;;18.90;99.90;;;;;;5070762;28;20033;-60
2022/07/29 01:14:00;;;;;;;3.78;2.13;;;18.80;99.90;;;;;;5073038;28;20024;-60
2022/07/29 01:16:31;;;;;;;4.45;2.85;;;18.70;99.90;;;;;;5074501;28;20376;-60
2022/07/29 01:19:12;;;;;;;8.00;2.40;;;18.70;99.90;;;;;;5073393;28;20024;-59
2022/07/29 01:21:44;;;;;;;6.38;2.33;;;18.60;99.90;;;;;;5073390;28;20025;-60
2022/07/29 01:24:31;;;;;;;7.97;2.97;;;18.50;99.90;;;;;;5074279;28;20047;-59
2022/07/29 01:27:23;;;;;;;5.13;2.88;;;18.40;99.90;;;;;;5074541;28;20032;-58
2022/07/29 01:29:58;;;;;;;4.93;2.78;;;18.40;99.90;;;;;;5073264;28;20021;-58
2022/07/29 01:32:28;;;;;;;7.85;3.20;;;18.30;99.90;;;;;;5074377;28;20039;-58
2022/07/29 01:34:56;;;;;;;5.72;2.83;;;18.30;99.90;;;;;;5074593;28;20035;-58
2022/07/29 01:37:45;;;;;;;8.48;3.63;;;18.20;99.90;;;;;;5074525;28;20116;-58
2022/07/29 01:40:34;;;;;;;6.53;3.22;;;18.20;99.90;;;;;;5072936;28;20031;-59
2022/07/29 01:43:22;;;;;;;6.30;3.20;;;18.20;99.90;;;;;;5063311;28;20085;-58
2022/07/29 01:45:57;;;;;;;6.82;3.30;;;18.20;99.90;;;;;;5073909;28;20040;-60
2022/07/29 01:48:31;;;;;;;8.90;3.15;;;18.20;99.90;;;;;;5073467;28;20069;-59
2022/07/29 01:51:04;;;;;;;9.88;3.45;;;18.10;99.90;;;;;;5073982;28;20512;-59
2022/07/29 01:53:37;;;;;;;8.15;3.38;;;18.10;99.90;;;;;;5072836;28;20100;-60
2022/07/29 01:56:04;;;;;;;6.65;3.05;;;18.20;99.90;;;;;;5074355;28;20028;-58
2022/07/29 01:58:32;;;;;;;5.03;3.13;;;18.10;99.90;;;;;;5073893;28;20531;-58
2022/07/29 02:00:59;;;;;;;5.05;2.85;;;18.10;99.90;;;;;;5073864;28;20054;-59
2022/07/29 02:03:26;;;;;;;9.70;3.63;;;18.00;99.90;;;;;;5074164;28;20024;-59
2022/07/29 02:05:53;;;;;;;6.97;3.63;;;18.00;99.90;;;;;;5073651;28;20020;-59
2022/07/29 02:08:19;;;;;;;10.88;3.60;;;17.90;99.90;;;;;;5074079;28;20028;-58
2022/07/29 02:10:48;;;;;;;10.32;3.60;;;17.90;99.90;;;;;;5073869;28;20032;-58
2022/07/29 02:13:15;;;;;;;6.32;3.72;;;17.80;99.90;;;;;;5073924;28;20032;-59
2022/07/29 02:15:43;;;;;;;6.95;3.38;;;17.80;99.90;;;;;;5072277;28;20033;-59
2022/07/29 02:18:20;;;;;;;8.43;3.78;;;17.80;99.90;;;;;;5073786;28;20092;-59
2022/07/29 02:20:48;;;;;;;5.95;3.28;;;17.70;99.90;;;;;;5073901;28;20086;-59
2022/07/29 02:23:21;;;;;;;10.27;3.85;;;17.70;99.90;;;;;;5055431;28;20025;-59
2022/07/29 02:25:50;;;;;;;7.85;3.55;;;17.70;99.90;;;;;;5072838;28;20024;-59
2022/07/29 02:28:17;;;;;;;10.00;3.30;;;17.70;99.90;;;;;;5073722;28;20063;-59
2022/07/29 02:30:43;;;;;;;5.65;3.28;;;17.70;99.90;;;;;;5073658;28;20436;-60
2022/07/29 02:33:14;;;;;;;8.73;3.60;;;17.70;99.90;;;;;;5072979;28;20074;-63
2022/07/29 02:35:41;;;;;;;9.13;3.70;;;17.70;99.90;;;;;;5073264;28;20024;-59
2022/07/29 02:40:58;;;;;;;9.77;3.70;;;17.70;99.90;;;;;;5073299;28;20071;-59
2022/07/29 02:43:25;;;;;;;9.20;3.78;;;17.70;99.90;;;;;;5073489;28;20039;-59
2022/07/29 02:45:54;;;;;;;6.95;3.65;;;17.70;99.90;;;;;;5072801;28;20420;-59
2022/07/29 02:48:24;;;;;;;7.03;3.58;;;17.70;99.90;;;;;;5073188;28;20540;-60
2022/07/29 02:50:55;;;;;;;5.68;3.38;;;17.60;99.90;;;;;;5071788;28;20033;-61
2022/07/29 02:53:25;;;;;;;7.88;3.63;;;17.60;99.90;;;;;;5073378;28;20515;-60
2022/07/29 02:55:59;;;;;;;6.18;3.53;;;17.60;99.90;;;;;;5073257;28;20131;-59
2022/07/29 02:58:29;;;;;;;6.97;3.63;;;17.50;99.90;;;;;;5072942;28;20041;-59
2022/07/29 03:01:02;;;;;;;7.75;3.70;;;17.50;99.90;;;;;;5072764;28;20048;-59
2022/07/29 03:03:36;;;;;;;5.72;3.72;;;17.50;99.90;;;;;;5072855;28;20026;-59
2022/07/29 03:06:03;;;;;;;6.85;4.00;;;17.50;99.90;;;;;;5071371;28;20067;-59
2022/07/29 03:08:31;;;;;;;8.35;3.95;;;17.50;99.90;;;;;;5072929;28;20033;-59
2022/07/29 03:10:57;;;;;;;8.70;4.10;;;17.40;99.90;;;;;;5072346;28;20028;-58
2022/07/29 03:13:24;;;;;;;10.02;3.95;;;17.40;99.90;;;;;;5072513;28;20032;-58
2022/07/29 03:15:50;;;;;;;9.52;4.45;;;17.40;99.90;;;;;;5072437;28;20031;-58
2022/07/29 03:18:16;;;;;;;11.68;3.90;;;17.40;99.90;;;;;;5072546;28;20125;-59
2022/07/29 03:20:42;;;;;;;8.52;4.43;;;17.50;99.90;;;;;;5072355;28;20024;-58
2022/07/29 03:23:08;;;;;;;9.40;3.97;;;17.40;99.90;;;;;;5072244;28;20473;-59
2022/07/29 03:25:34;;;;;;;9.35;3.72;;;17.40;99.90;;;;;;5072431;28;20028;-59
2022/07/29 03:28:00;;;;;;;8.20;3.80;;;17.30;99.90;;;;;;5072694;28;20070;-60
2022/07/29 03:30:26;;;;;;;6.95;4.13;;;17.30;99.90;;;;;;5072542;28;20069;-58
2022/07/29 03:32:52;;;;;;;6.70;3.80;;;17.20;99.90;;;;;;5072087;28;20400;-59
2022/07/29 03:35:19;;;;;;;7.75;3.90;;;17.20;99.90;;;;;;5072159;28;20048;-59
2022/07/29 03:37:45;;;;;;;10.20;4.30;;;17.20;99.90;;;;;;5071839;28;20123;-59
2022/07/29 03:40:19;;;;;;;10.40;3.83;;;17.20;99.90;;;;;;5072371;28;20091;-58
2022/07/29 03:42:46;;;;;;;7.68;4.05;;;17.10;99.90;;;;;;5071982;28;20541;-59
2022/07/29 03:45:16;;;;;;;9.50;3.85;;;17.10;99.90;;;;;;5070419;28;20024;-59
2022/07/29 03:47:50;;;;;;;6.07;3.67;;;17.10;99.90;;;;;;5071641;28;20040;-59
2022/07/29 03:50:18;;;;;;;6.18;4.18;;;17.10;99.90;;;;;;5071674;28;20028;-58
2022/07/29 03:52:43;;;;;;;7.70;3.60;;;17.10;99.90;;;;;;5071879;28;20024;-58
2022/07/29 03:55:09;;;;;;;8.82;3.88;;;17.00;99.90;;;;;;5070220;28;20029;-58
2022/07/29 03:57:36;;;;;;;7.35;3.83;;;17.00;99.90;;;;;;5071565;28;20021;-60
2022/07/29 04:00:04;;;;;;;7.53;3.70;;;17.00;99.90;;;;;;5071692;28;20044;-59
2022/07/29 04:02:31;;;;;;;7.57;3.85;;;16.90;99.90;;;;;;5071802;28;20031;-59
2022/07/29 04:04:57;;;;;;;5.85;3.70;;;16.90;99.90;;;;;;5071662;28;20074;-59
2022/07/29 04:07:22;;;;;;;5.93;3.72;;;16.90;99.90;;;;;;5069985;28;20040;-59
2022/07/29 04:09:48;;;;;;;8.10;3.97;;;16.80;99.90;;;;;;5071638;28;20439;-59
2022/07/29 04:12:13;;;;;;;5.90;3.85;;;16.80;99.90;;;;;;5072021;28;20033;-59
2022/07/29 04:14:39;;;;;;;6.38;3.65;;;16.80;99.90;;;;;;5071214;28;20029;-58
2022/07/29 04:17:05;;;;;;;8.00;3.72;;;16.80;99.90;;;;;;5071566;28;20040;-59
2022/07/29 04:19:31;;;;;;;8.38;4.07;;;16.70;99.90;;;;;;5071915;28;20092;-58
2022/07/29 04:21:58;;;;;;;7.35;3.58;;;16.70;99.90;;;;;;5071143;28;20024;-58
2022/07/29 04:24:24;;;;;;;5.97;4.05;;;16.70;99.90;;;;;;5071575;28;20021;-59
2022/07/29 04:26:49;;;;;;;7.10;4.22;;;16.70;99.90;;;;;;5071140;28;20058;-59
2022/07/29 04:29:15;;;;;;;9.35;4.30;;;16.70;99.90;;;;;;5071267;28;20024;-58
2022/07/29 04:31:41;;;;;;;8.55;4.50;;;16.70;99.90;;;;;;5071585;28;20028;-58
2022/07/29 04:34:07;;;;;;;7.35;4.13;;;16.80;99.90;;;;;;5070928;28;20025;-63
2022/07/29 04:36:33;;;;;;;8.02;4.60;;;16.80;99.90;;;;;;5071087;28;20086;-60
2022/07/29 04:38:59;;;;;;;9.50;4.25;;;16.80;99.90;;;;;;5071431;28;20100;-59
2022/07/29 04:41:24;;;;;;;7.35;4.90;;;16.70;99.90;;;;;;5071220;28;20016;-59
2022/07/29 04:43:50;;;;;;;6.43;3.83;;;16.70;99.90;;;;;;5070927;28;20051;-58
2022/07/29 04:46:15;;;;;;;8.48;3.88;;;16.60;99.90;;;;;;5070768;28;20028;-59
2022/07/29 04:48:41;;;;;;;8.20;4.10;;;16.60;99.90;;;;;;5073143;28;20063;-58
2022/07/29 04:51:07;;;;;;;7.82;4.18;;;16.70;99.90;;;;;;5075171;28;20085;-59
2022/07/29 04:53:33;;;;;;;8.07;4.55;;;16.70;99.90;;;;;;5074725;28;20107;-58
2022/07/29 04:55:58;;;;;;;6.82;4.53;;;16.70;99.90;;;;;;5075129;28;20020;-58
2022/07/29 04:58:24;;;;;;;9.15;4.60;;;16.70;99.90;;;;;;5074793;28;20374;-58
2022/07/29 05:00:50;;;;;;;7.35;4.13;;;16.80;99.90;;;;;;5074959;28;20047;-59
2022/07/29 05:03:17;;;;;;;13.23;4.32;;;16.70;99.90;;;;;;5074861;28;20021;-58
2022/07/29 05:05:43;;;;;;;8.75;3.92;;;16.80;99.90;;;;;;5075016;28;20016;-59
2022/07/29 05:08:08;;;;;;;7.13;3.83;;;16.80;99.90;;;;;;5074804;28;20081;-58
2022/07/29 05:10:37;;;;;;;10.35;4.20;;;16.80;99.90;;;;;;5074802;28;20040;-59
2022/07/29 05:13:05;;;;;;;6.15;3.95;;;16.90;99.90;;;;;;5073529;28;20162;-58
2022/07/29 05:15:31;;;;;;;6.25;4.30;;;17.00;99.90;;;;;;5074750;28;20397;-59
2022/07/29 05:17:57;;;;;;;12.65;4.47;;;17.00;99.90;;;;;;5075090;28;20028;-59
2022/07/29 05:20:27;;;;;;;8.20;3.83;;;17.00;99.90;;;;;;5074274;28;20028;-58
2022/07/29 05:22:57;;;;;;;6.72;4.40;;;17.10;99.90;;;;;;5074307;28;20057;-58
2022/07/29 05:25:24;;;;;;;15.07;4.93;;;17.00;99.90;;;;;;5074183;28;20028;-58
2022/07/29 05:27:49;;;;;;;9.13;4.20;;;17.10;99.90;;;;;;5074296;28;20461;-60
2022/07/29 05:30:15;;;;;;;9.63;4.40;;;17.10;99.90;;;;;;5074142;28;20111;-59
2022/07/29 05:32:41;;;;;;;13.18;4.88;;;17.10;99.90;;;;;;5074266;28;20040;-59
2022/07/29 05:35:07;;;;;;;9.63;4.65;;;17.10;99.90;;;;;;5074179;28;20063;-59
2022/07/29 05:37:33;;;;;;;10.18;4.70;;;17.20;99.90;;;;;;5073949;28;20044;-59
2022/07/29 05:39:59;;;;;;;7.47;4.18;;;17.20;99.90;;;;;;5074223;28;20020;-59
2022/07/29 05:42:25;;;;;;;8.75;4.10;;;17.30;99.90;;;;;;5073978;28;20439;-58
2022/07/29 05:44:51;;;;;;;10.25;5.10;;;17.30;99.90;;;;;;5073828;28;20075;-57
2022/07/29 05:47:17;;;;;;;7.35;4.47;;;17.40;99.90;;;;;;5073959;28;20119;-60
2022/07/29 05:49:43;;;;;;;10.23;4.70;;;17.30;99.90;;;;;;5074325;28;20104;-58
2022/07/29 05:52:08;;;;;;;11.13;4.80;;;17.30;99.90;;;;;;5073788;28;20244;-59
2022/07/29 05:54:34;;;;;;;7.38;4.10;;;17.40;99.90;;;;;;5073680;28;20031;-57
2022/07/29 05:57:00;;;;;;;7.85;4.35;;;17.50;99.90;;;;;;5073906;28;20033;-59
2022/07/29 05:59:26;;;;;;;8.05;4.22;;;17.60;99.90;;;;;;5073243;28;20115;-58
2022/07/29 06:01:51;;;;;;;7.18;4.50;;;17.50;99.90;;;;;;5073475;28;20480;-57
2022/07/29 06:04:17;;;;;;;7.00;4.15;;;17.50;99.90;;;;;;5073418;28;20028;-57
2022/07/29 06:06:43;;;;;;;10.63;4.70;;;17.60;99.90;;;;;;5072296;28;20535;-58
2022/07/29 06:09:08;;;;;;;6.57;4.40;;;17.70;99.90;;;;;;5073566;28;20103;-58
2022/07/29 06:11:34;;;;;;;8.13;4.38;;;17.80;99.90;;;;;;5073393;28;20392;-58
2022/07/29 06:14:00;;;;;;;6.55;4.05;;;17.90;99.90;;;;;;5071990;28;20028;-58
2022/07/29 06:16:25;;;;;;;10.50;4.45;;;18.00;99.90;;;;;;5073314;28;20032;-58
2022/07/29 06:18:52;;;;;;;6.75;4.10;;;18.00;99.90;;;;;;5073276;28;20021;-58
2022/07/29 06:21:17;;;;;;;5.55;3.97;;;18.10;99.90;;;;;;5073416;28;20385;-58
2022/07/29 06:23:44;;;;;;;7.00;4.20;;;18.20;99.90;;;;;;5071729;28;20037;-58
2022/07/29 06:26:10;;;;;;;8.50;4.13;;;18.30;99.90;;;;;;5072983;28;20104;-58
2022/07/29 06:28:36;;;;;;;8.00;4.30;;;18.30;99.90;;;;;;5073150;28;20142;-58
2022/07/29 06:31:02;;;;;;;5.55;4.35;;;18.30;99.90;;;;;;5072779;28;20027;-58
2022/07/29 06:33:27;;;;;;;5.28;3.83;;;18.50;99.90;;;;;;5073166;28;20029;-58
2022/07/29 06:35:53;;;;;;;6.93;4.30;;;18.60;99.90;;;;;;5072787;28;20074;-58
2022/07/29 06:38:19;;;;;;;11.43;4.15;;;18.70;99.90;;;;;;5072835;28;20060;-58
2022/07/29 06:41:02;;;;;;;4.60;4.20;;;18.90;99.90;;;;;;5072811;28;20020;-58
2022/07/29 06:43:33;;;;;;;;;;;18.90;99.90;;;;;;5073172;28;20024;-59
2022/07/29 06:46:04;;;;;;;7.80;3.95;;;19.00;99.90;;;;;;5072811;28;19964;-58
2022/07/29 06:48:30;;;;;;;7.85;4.30;;;19.30;99.90;;;;;;5072865;28;20035;-58
2022/07/29 06:50:56;;;;;;;6.10;3.90;;;19.70;99.90;;;;;;5072460;28;20094;-58
2022/07/29 06:53:21;;;;;;;8.32;4.03;;;19.90;99.90;;;;;;5072630;28;20040;-58
2022/07/29 06:55:47;;;;;;;9.95;4.15;;;20.00;99.90;;;;;;5072354;28;20400;-60
2022/07/29 06:58:15;;;;;;;6.68;3.80;;;20.00;99.90;;;;;;5072233;28;20094;-58
2022/07/29 07:00:42;;;;;;;8.77;4.07;;;20.00;99.90;;;;;;5072853;28;20059;-58
2022/07/29 07:03:07;;;;;;;7.18;3.67;;;20.20;99.90;;;;;;5072180;28;20066;-58
2022/07/29 07:05:33;;;;;;;5.30;3.83;;;20.70;99.90;;;;;;5072403;28;20020;-59
2022/07/29 07:07:59;;;;;;;11.15;5.03;;;20.40;99.90;;;;;;5072716;28;20469;-58
2022/07/29 07:10:24;;;;;;;7.55;3.80;;;20.90;99.90;;;;;;5071989;28;20035;-58
2022/07/29 07:12:50;;;;;;;6.70;3.25;;;21.60;99.90;;;;;;5072241;28;20042;-59
2022/07/29 07:15:16;;;;;;;6.40;3.50;;;23.20;99.90;;;;;;5072713;28;20028;-59
2022/07/29 07:17:41;;;;;;;5.18;3.35;;;24.90;99.90;;;;;;5072121;28;20131;-59
2022/07/29 07:20:08;;;;;;;6.35;3.13;;;25.90;96.50;;;;;;5071189;28;20028;-59
2022/07/29 07:22:33;;;;;;;4.65;3.33;;;26.80;94.70;;;;;;5072227;28;20178;-63
2022/07/29 07:24:59;;;;;;;8.02;3.33;;;27.80;91.80;;;;;;5072057;28;20100;-60
2022/07/29 07:27:24;;;;;;;6.97;3.50;;;27.90;90.30;;;;;;5072145;28;20040;-60
2022/07/29 07:29:50;;;;;;;7.25;3.28;;;28.60;87.90;;;;;;5072159;28;20021;-60
2022/07/29 07:32:16;;;;;;;6.53;2.90;;;28.50;87.00;;;;;;5072077;28;20050;-60
2022/07/29 07:34:42;;;;;;;4.22;3.33;;;28.40;85.70;;;;;;5071823;28;20385;-62
2022/07/29 07:37:09;;;;;;;5.85;3.22;;;27.60;88.60;;;;;;5071860;28;20043;-60
2022/07/29 07:39:35;;;;;;;6.95;2.95;;;28.10;88.10;;;;;;5072218;28;20036;-60
2022/07/29 07:42:01;;;;;;;5.43;3.17;;;27.60;88.40;;;;;;5071487;28;20025;-60
2022/07/29 07:44:26;;;;;;;4.63;3.17;;;28.10;86.80;;;;;;5071888;28;20020;-60
2022/07/29 07:46:52;;;;;;;6.28;3.20;;;29.50;83.10;;;;;;5071362;28;20040;-59
2022/07/29 07:49:18;;;;;;;6.40;3.20;;;30.30;80.40;;;;;;5071717;28;20209;-60
2022/07/29 07:51:44;;;;;;;6.75;3.10;;;29.70;80.10;;;;;;5071949;28;20029;-59
2022/07/29 07:54:09;;;;;;;3.97;2.90;;;29.60;80.80;;;;;;5071809;28;20028;-60
2022/07/29 07:56:35;;;;;;;7.35;3.38;;;29.10;81.80;;;;;;5071424;28;20028;-60
2022/07/29 07:59:01;;;;;;;6.20;3.33;;;30.20;79.10;;;;;;5071965;28;20047;-60
2022/07/29 08:01:26;;;;;;;5.50;2.83;;;30.10;78.60;;;;;;5071569;28;20044;-60
2022/07/29 08:03:52;;;;;;;6.05;3.15;;;30.00;79.00;;;;;;5071321;28;20090;-60
2022/07/29 08:06:18;;;;;;;5.47;2.78;;;29.90;79.40;;;;;;5071411;28;20017;-60
2022/07/29 08:08:43;;;;;;;4.53;2.60;;;29.50;80.10;;;;;;5070121;28;20025;-60
2022/07/29 08:11:09;;;;;;;4.85;2.70;;;28.60;81.50;;;;;;5071222;28;20081;-60
2022/07/29 08:13:35;;;;;;;5.63;2.95;;;28.60;82.70;;;;;;5071109;28;20031;-60
2022/07/29 08:16:01;;;;;;;5.75;2.47;;;29.60;80.60;;;;;;5070046;28;20482;-60
2022/07/29 08:18:29;;;;;;;7.45;2.90;;;30.10;80.00;;;;;;5070076;28;20040;-60
2022/07/29 08:20:55;;;;;;;5.18;3.10;;;30.70;77.50;;;;;;5071268;28;20492;-60
2022/07/29 08:23:22;;;;;;;3.58;2.58;;;30.60;76.90;;;;;;5071116;28;20035;-60
2022/07/29 08:25:49;;;;;;;4.47;2.60;;;30.40;76.90;;;;;;5071218;28;20021;-60
2022/07/29 08:28:15;;;;;;;2.90;2.40;;;30.20;76.90;;;;;;5071369;28;20036;-60
2022/07/29 08:30:41;;;;;;;7.22;2.85;;;29.50;79.00;;;;;;5071442;28;20027;-60
2022/07/29 08:33:06;;;;;;;5.07;2.10;;;29.90;78.60;;;;;;5070949;28;20028;-60
2022/07/29 08:35:32;;;;;;;5.00;2.22;;;29.80;77.80;;;;;;5070936;28;20028;-62
2022/07/29 08:37:58;;;;;;;4.50;2.33;;;30.00;77.90;;;;;;5071424;28;20485;-62
2022/07/29 08:40:24;;;;;;;4.00;2.30;;;30.20;76.50;;;;;;5070608;28;20020;-62
2022/07/29 08:42:50;;;;;;;4.13;2.40;;;30.40;76.20;;;;;;5071039;28;20524;-62
2022/07/29 08:45:16;;;;;;;6.07;2.40;;;30.80;74.80;;;;;;5070598;28;20017;-62
2022/07/29 08:47:45;;;;;;;3.17;2.00;;;31.30;74.80;;;;;;5070742;28;20214;-62
2022/07/29 08:50:12;;;;;;;4.40;2.28;;;31.50;72.60;;;;;;5070881;28;20028;-62
2022/07/29 08:52:40;;;;;;;5.40;2.97;;;31.30;72.60;;;;;;5070572;28;20519;-62
2022/07/29 08:55:09;;;;;;;3.33;2.42;;;31.00;73.00;;;;;;5071067;28;20033;-62
2022/07/29 08:57:35;;;;;;;8.70;3.03;;;31.00;73.20;;;;;;5070655;28;20481;-62
2022/07/29 09:00:04;;;;;;;3.63;2.75;;;31.50;72.00;;;;;;5070618;28;20519;-62
2022/07/29 09:02:41;;;;;;;6.25;3.22;;;31.80;71.00;;;;;;5070485;28;20104;-63
2022/07/29 09:05:08;;;;;;;6.22;2.90;;;31.20;71.60;;;;;;5069618;28;20024;-61
2022/07/29 09:07:33;;;;;;;10.68;2.25;;;31.10;72.10;;;;;;5069467;28;20446;-59
2022/07/29 09:10:00;;;;;;;4.43;2.42;;;31.30;70.30;;;;;;5071186;28;20157;-59
2022/07/29 09:12:26;;;;;;;4.35;2.22;;;31.80;69.50;;;;;;5071002;28;20104;-59
2022/07/29 09:14:51;;;;;;;5.82;2.38;;;31.70;70.20;;;;;;5069482;28;20139;-59
2022/07/29 09:17:19;;;;;;;6.60;2.15;;;31.30;69.30;;;;;;5070560;28;20037;-60
2022/07/29 09:19:45;;;;;;;5.55;2.33;;;31.40;68.90;;;;;;5069797;28;20389;-60
2022/07/29 09:22:11;;;;;;;7.38;2.55;;;31.20;68.80;;;;;;5070816;28;20025;-59
2022/07/29 09:24:38;;;;;;;6.45;2.90;;;31.10;69.40;;;;;;5069375;28;20032;-61
2022/07/29 09:27:28;;;;;;;6.85;2.70;;;31.10;69.70;;;;;;5070660;28;20031;-62
2022/07/29 09:30:12;;;;;;;4.70;2.60;;;31.10;69.70;;;;;;5070662;28;20037;-61
2022/07/29 09:32:58;;;;;;;9.27;2.60;;;31.40;68.60;;;;;;5070377;28;20112;-61
2022/07/29 09:35:25;;;;;;;4.65;2.60;;;31.30;68.50;;;;;;5073103;28;20024;-61
2022/07/29 09:37:51;;;;;;;4.82;2.58;;;31.00;69.20;;;;;;5074033;28;20503;-61
2022/07/29 09:40:22;;;;;;;4.30;2.38;;;31.20;68.50;;;;;;5073950;28;20044;-62
2022/07/29 09:42:48;;;;;;;6.20;2.40;;;30.50;70.10;;;;;;5074184;28;20103;-62
2022/07/29 09:45:26;;;;;;;6.80;2.53;;;31.20;68.80;;;;;;5074151;28;20047;-61
2022/07/29 09:47:52;;;;;;;7.43;2.97;;;31.70;67.90;;;;;;5072768;28;20443;-61
2022/07/29 09:50:23;;;;;;;5.30;2.40;;;31.90;66.80;;;;;;5072575;28;20020;-62
2022/07/29 09:52:51;;;;;;;4.10;2.60;;;31.90;67.80;;;;;;5074279;28;20487;-62
2022/07/29 09:55:17;;;;;;;7.10;2.80;;;32.10;66.80;;;;;;5072329;28;20067;-61
2022/07/29 09:57:44;;;;;;;4.35;2.50;;;31.50;65.80;;;;;;5073966;28;20572;-61
2022/07/29 10:00:18;;;;;;;5.88;2.83;;;31.50;66.20;;;;;;5072385;28;20496;-62
2022/07/29 10:02:45;;;;;;;7.22;2.45;;;31.40;66.40;;;;;;5074266;28;20082;-61
2022/07/29 10:05:22;;;;;;;4.43;2.47;;;31.80;65.20;;;;;;5073214;28;20031;-61
2022/07/29 10:07:56;;;;;;;6.43;2.13;;;31.80;65.60;;;;;;5073739;28;20062;-61
2022/07/29 10:10:27;;;;;;;3.97;2.05;;;31.00;65.40;;;;;;5073393;28;20021;-61
2022/07/29 10:13:01;;;;;;;5.07;2.53;;;30.60;66.80;;;;;;5073410;28;20532;-61
2022/07/29 10:15:29;;;;;;;8.60;2.60;;;30.20;67.20;;;;;;5073178;28;20020;-61
2022/07/29 10:17:56;;;;;;;6.68;2.22;;;30.50;67.70;;;;;;5073343;28;20075;-62
2022/07/29 10:20:22;;;;;;;3.45;1.90;;;31.00;66.80;;;;;;5073228;28;20024;-61
2022/07/29 10:22:49;;;;;;;4.65;2.15;;;31.50;66.30;;;;;;5073224;28;20385;-61
2022/07/29 10:25:16;;;;;;;5.60;2.17;;;32.30;63.20;;;;;;5073250;28;20514;-61
2022/07/29 10:27:43;;;;;;;2.95;1.75;;;33.10;62.40;;;;;;5073326;28;20024;-61
2022/07/29 10:30:10;;;;;;;6.07;2.00;;;32.80;61.60;;;;;;5073194;28;20025;-61
2022/07/29 10:32:45;;;;;;;6.80;2.45;;;33.10;61.90;;;;;;5072996;28;20052;-61
2022/07/29 10:35:46;;;;;;;5.25;1.95;;;33.60;61.20;;;;;;5072897;28;20039;-61
2022/07/29 10:38:58;;;;;;;3.45;1.70;;;33.80;61.40;;;;;;5037345;28;20043;-61
2022/07/29 10:41:42;;;;;;;6.50;1.92;;;33.40;59.60;;;;;;5070843;28;20043;-61
2022/07/29 10:44:14;;;;;;;6.32;1.60;;;32.90;59.90;;;;;;5072748;28;20396;-61
2022/07/29 10:46:40;;;;;;;4.57;1.70;;;33.10;60.00;;;;;;5071450;28;20040;-62
2022/07/29 10:49:16;;;;;;;7.28;1.90;;;33.50;59.70;;;;;;5073198;28;20055;-62
2022/07/29 10:51:52;;;;;;;5.35;1.92;;;33.60;59.90;;;;;;5073236;28;20035;-61
2022/07/29 10:54:18;;;;;;;3.33;1.70;;;33.80;58.60;;;;;;5072821;28;20111;-62
2022/07/29 10:56:44;;;;;;;3.33;1.67;;;33.80;58.00;;;;;;5072312;28;20103;-62
2022/07/29 10:59:19;;;;;;;5.65;1.88;;;33.70;59.40;;;;;;5072475;28;20115;-62
2022/07/29 11:01:45;;;;;;;5.18;1.80;;;33.90;58.50;;;;;;5072501;28;20037;-61
2022/07/29 11:04:11;;;;;;;5.75;1.88;;;34.50;58.30;;;;;;5072118;28;20501;-61
2022/07/29 11:07:05;;;;;;;5.65;1.92;;;34.50;57.70;;;;;;5072487;28;20074;-61
2022/07/29 11:09:31;;;;;;;4.50;1.63;;;34.10;59.10;;;;;;5071209;28;20032;-61
2022/07/29 11:11:58;;;;;;;3.08;1.48;;;34.60;57.70;;;;;;5072552;28;20102;-62
2022/07/29 11:14:51;;;;;;;6.10;1.75;;;34.50;57.60;;;;;;5072744;28;20400;-61
2022/07/29 11:17:18;;;;;;;6.57;1.80;;;34.50;57.30;;;;;;5072281;28;20102;-60
2022/07/29 11:19:44;;;;;;;3.22;1.67;;;34.00;57.10;;;;;;5072987;28;20036;-61
2022/07/29 11:22:11;;;;;;;3.63;1.70;;;33.90;57.20;;;;;;5072470;28;20021;-61
2022/07/29 11:24:37;;;;;;;8.82;2.40;;;33.60;57.60;;;;;;5072441;28;20103;-61
2022/07/29 11:27:11;;;;;;;4.35;1.92;;;34.00;57.80;;;;;;5070839;28;20553;-61
2022/07/29 11:29:49;;;;;;;3.58;1.98;;;33.20;57.80;;;;;;5072216;28;20378;-61
2022/07/29 11:32:17;;;;;;;7.20;1.73;;;33.40;57.60;;;;;;5071976;28;20036;-61
2022/07/29 11:34:43;;;;;;;6.30;1.90;;;32.40;58.60;;;;;;5070371;28;20139;-60
2022/07/29 11:37:09;;;;;;;7.05;1.70;;;31.10;59.70;;;;;;5071888;28;20025;-60
2022/07/29 11:39:37;;;;;;;5.07;1.38;;;30.50;59.50;;;;;;5072021;28;20522;-60
2022/07/29 11:42:22;;;;;;;3.50;1.45;;;29.70;60.80;;;;;;5071528;28;20040;-60
2022/07/29 11:45:17;;;;;;;5.22;1.50;;;29.20;62.20;;;;;;5067820;28;20356;-60
2022/07/29 11:47:48;;;;;;;4.13;1.33;;;29.00;62.40;;;;;;5071632;28;20058;-60
2022/07/29 11:50:28;;;;;;;5.82;1.45;;;29.00;62.50;;;;;;5071453;28;20025;-60
2022/07/29 11:52:55;;;;;;;6.32;1.98;;;28.90;64.00;;;;;;5070324;28;20045;-60
2022/07/29 11:55:22;;;;;;;5.93;2.30;;;29.00;64.60;;;;;;5071513;28;20040;-60
2022/07/29 11:58:08;;;;;;;4.80;1.67;;;29.30;64.70;;;;;;5071479;28;20058;-61
2022/07/29 12:00:37;;;;;;;7.22;2.42;;;29.20;65.50;;;;;;5071639;28;20382;-61
2022/07/29 12:03:07;;;;;;;6.32;2.15;;;29.10;65.60;;;;;;5071268;28;20035;-61
2022/07/29 12:05:34;;;;;;;4.45;1.73;;;29.10;66.40;;;;;;5071329;28;20021;-61
2022/07/29 12:08:18;;;;;;;5.85;1.90;;;29.40;65.30;;;;;;5071487;28;20036;-59
2022/07/29 12:10:45;;;;;;;4.55;2.25;;;29.60;65.90;;;;;;5071395;28;20035;-60
2022/07/29 12:13:12;;;;;;;4.35;1.70;;;29.60;66.40;;;;;;5071206;28;20024;-61
2022/07/29 12:15:38;;;;;;;6.43;2.10;;;29.80;65.50;;;;;;5069882;28;20063;-60
2022/07/29 12:18:15;;;;;;;8.43;2.67;;;29.90;64.00;;;;;;5071315;28;20024;-61
2022/07/29 12:20:42;;;;;;;9.48;2.67;;;30.30;62.90;;;;;;5069809;28;20031;-60
2022/07/29 12:23:11;;;;;;;7.22;2.72;;;30.80;62.90;;;;;;5069511;28;20067;-64
2022/07/29 12:25:37;;;;;;;5.82;2.05;;;31.10;62.20;;;;;;5069679;28;20026;-61
2022/07/29 12:28:05;;;;;;;6.60;2.33;;;30.50;63.80;;;;;;5069835;28;20035;-61
2022/07/29 12:30:48;;;;;;;4.45;2.22;;;31.40;61.70;;;;;;5070948;28;20123;-62
2022/07/29 12:33:20;;;;;;;4.95;1.88;;;31.90;60.30;;;;;;5071023;28;20028;-61
2022/07/29 12:35:53;;;;;;;;;;;32.90;59.60;;;;;;5071183;28;20090;-61
2022/07/29 12:38:19;;;;;;;6.85;2.13;;;33.50;57.80;;;;;;5071250;28;19958;-62
2022/07/29 12:41:12;;;;;;;5.43;2.25;;;34.40;57.10;;;;;;5071110;28;20044;-62
2022/07/29 12:43:53;;;;;;;5.65;2.42;;;34.10;56.40;;;;;;5069088;28;20043;-62
2022/07/29 12:46:18;;;;;;;4.90;2.08;;;34.80;56.10;;;;;;5070956;28;20031;-62
2022/07/29 12:48:44;;;;;;;8.18;1.90;;;35.70;55.30;;;;;;5071366;28;20036;-63
2022/07/29 12:51:12;;;;;;;5.80;2.40;;;35.10;54.80;;;;;;5069797;28;20048;-62
2022/07/29 12:53:38;;;;;;;3.58;2.20;;;35.30;54.80;;;;;;5070780;28;20025;-61
2022/07/29 12:56:04;;;;;;;8.32;2.97;;;35.50;53.90;;;;;;5070882;28;20101;-62
2022/07/29 12:58:36;;;;;;;8.05;3.00;;;35.20;53.70;;;;;;5070803;28;20064;-61